Time;durP1;ratioP1;P1;durP2;ratioP2;P2;SDS_P1;SDS_P2;PMS_P1;PMS_P2;Temp;Humidity;BMP_temperature;BMP_pressure;BME280_temperature;BME280_humidity;BME280_pressure;Samples;Min_cycle;Max_cycle;Signal;HPM_P1;HPM_P2
2022/12/21 00:01:09;;;;;;;34.13;17.77;;;;;;;-1.31;nan;96060.78;5055346;28;20220;-62
2022/12/21 00:03:37;;;;;;;35.13;16.63;;;;;;;-1.29;nan;96065.81;5054045;28;20266;-62
2022/12/21 00:06:05;;;;;;;29.20;17.00;;;;;;;-1.27;nan;96064.19;5054671;28;20279;-61
2022/12/21 00:08:31;;;;;;;33.17;16.90;;;;;;;-1.30;nan;96064.13;5054170;28;20286;-62
2022/12/21 00:10:59;;;;;;;33.90;17.90;;;;;;;-1.28;nan;96060.84;5053511;28;20202;-63
2022/12/21 00:13:26;;;;;;;36.57;17.23;;;;;;;-1.28;nan;96048.41;5053424;28;20263;-63
2022/12/21 00:15:57;;;;;;;34.57;16.77;;;;;;;-1.37;nan;96058.94;5054603;28;20239;-61
2022/12/21 00:18:24;;;;;;;28.57;17.07;;;;;;;-1.39;nan;96064.69;5055200;28;20205;-62
2022/12/21 00:20:59;;;;;;;33.43;17.20;;;;;;;-1.40;nan;96058.84;5054459;28;20450;-63
2022/12/21 00:23:26;;;;;;;36.87;17.00;;;;;;;-1.39;nan;96050.56;5054094;28;20582;-62
2022/12/21 00:25:52;;;;;;;31.17;16.40;;;;;;;-1.40;nan;96053.88;5055080;28;20215;-62
2022/12/21 00:28:19;;;;;;;31.50;18.40;;;;;;;-1.45;nan;96052.03;5054396;28;20259;-62
2022/12/21 00:30:46;;;;;;;28.83;15.90;;;;;;;-1.41;nan;96057.16;5053384;28;20209;-62
2022/12/21 00:33:13;;;;;;;29.73;16.40;;;;;;;-1.39;nan;96050.56;5053804;28;20229;-62
2022/12/21 00:35:39;;;;;;;35.73;17.87;;;;;;;-1.49;nan;96033.69;5054151;28;20233;-61
2022/12/21 00:38:07;;;;;;;26.63;16.47;;;;;;;-1.37;nan;96045.63;5053915;28;20208;-62
2022/12/21 00:40:34;;;;;;;30.20;16.40;;;;;;;-1.38;nan;96046.44;5053143;28;20716;-63
2022/12/21 00:43:01;;;;;;;35.60;15.33;;;;;;;-1.34;nan;96044.88;5053587;28;20519;-62
2022/12/21 00:45:27;;;;;;;30.43;15.47;;;;;;;-1.39;nan;96042.25;5054116;28;20201;-62
2022/12/21 00:47:54;;;;;;;43.27;15.73;;;;;;;-1.38;nan;96049.78;5054608;28;20201;-61
2022/12/21 00:50:21;;;;;;;32.27;15.83;;;;;;;-1.39;nan;96040.59;5054451;28;20443;-62
2022/12/21 00:52:47;;;;;;;27.03;15.50;;;;;;;-1.42;nan;96028.03;5054005;28;20213;-62
2022/12/21 00:55:16;;;;;;;33.47;16.50;;;;;;;-1.45;nan;96030.44;5053395;28;20259;-62
2022/12/21 00:57:43;;;;;;;30.23;17.00;;;;;;;-1.48;nan;96015.41;5053765;28;20209;-63
2022/12/21 01:00:11;;;;;;;25.70;15.43;;;;;;;-1.46;nan;96018.78;5053873;28;20202;-62
2022/12/21 01:02:38;;;;;;;33.57;15.73;;;;;;;-1.51;nan;96012.84;5053819;28;20210;-62
2022/12/21 01:05:05;;;;;;;32.50;17.43;;;;;;;-1.52;nan;96018.66;5053539;28;20212;-62
2022/12/21 01:07:32;;;;;;;30.50;16.37;;;;;;;-1.50;nan;96012.06;5054097;28;20212;-62
2022/12/21 01:09:58;;;;;;;28.23;15.93;;;;;;;-1.46;nan;96008.81;5053457;28;20205;-63
2022/12/21 01:12:27;;;;;;;29.87;14.87;;;;;;;-1.49;nan;96013.75;5054656;28;20202;-62
2022/12/21 01:14:53;;;;;;;29.60;15.57;;;;;;;-1.53;nan;96016.94;5051289;28;20248;-62
2022/12/21 01:17:20;;;;;;;24.57;14.90;;;;;;;-1.51;nan;96012.84;5052186;28;20208;-62
2022/12/21 01:19:49;;;;;;;26.67;15.10;;;;;;;-1.53;nan;96013.63;5053403;28;20209;-62
2022/12/21 01:22:16;;;;;;;25.43;15.47;;;;;;;-1.53;nan;96009.47;5053122;28;20209;-62
2022/12/21 01:24:43;;;;;;;27.17;15.63;;;;;;;-1.49;nan;96008.75;5053598;28;20518;-62
2022/12/21 01:27:10;;;;;;;27.93;15.23;;;;;;;-1.51;nan;96007.03;5051957;28;20201;-62
2022/12/21 01:29:38;;;;;;;32.70;15.13;;;;;;;-1.62;nan;96010.84;5053962;28;20205;-62
2022/12/21 01:32:06;;;;;;;28.50;15.73;;;;;;;-1.72;nan;96005.59;5053064;28;20206;-62
2022/12/21 01:34:32;;;;;;;30.03;16.37;;;;;;;-1.82;nan;95968.78;5053608;28;20229;-61
2022/12/21 01:36:59;;;;;;;36.30;15.13;;;;;;;-1.56;nan;96001.06;5052206;28;20222;-63
2022/12/21 01:39:26;;;;;;;22.80;13.67;;;;;;;-1.60;nan;96005.09;5053808;28;20636;-63
2022/12/21 01:41:54;;;;;;;31.40;15.50;;;;;;;-1.65;nan;95999.16;5054233;28;20701;-62
2022/12/21 01:45:03;;;;;;;23.90;14.57;;;;;;;-1.76;nan;96003.00;5051824;28;20670;-62
2022/12/21 01:47:37;;;;;;;23.90;13.93;;;;;;;-1.68;nan;95990.72;5030955;28;20698;-60
2022/12/21 01:50:17;;;;;;;23.53;13.53;;;;;;;-1.64;nan;95990.88;5052552;28;20907;-62
2022/12/21 01:52:44;;;;;;;22.00;12.93;;;;;;;-1.85;nan;95975.31;5054347;28;20673;-62
2022/12/21 01:55:11;;;;;;;26.97;14.57;;;;;;;-1.79;nan;95982.97;5052950;28;20229;-62
2022/12/21 01:57:38;;;;;;;25.03;13.63;;;;;;;-1.78;nan;95982.19;5052239;28;20216;-62
2022/12/21 02:00:08;;;;;;;22.20;13.80;;;;;;;-1.79;nan;95973.00;5052936;28;20205;-62
2022/12/21 02:02:41;;;;;;;26.87;14.20;;;;;;;-1.82;nan;95982.88;5052545;28;20224;-62
2022/12/21 02:05:16;;;;;;;29.30;15.10;;;;;;;-1.77;nan;95972.25;5052805;28;20206;-62
2022/12/21 02:07:45;;;;;;;20.30;14.47;;;;;;;-1.82;nan;95978.75;5051153;28;21962;-62
2022/12/21 02:10:12;;;;;;;28.60;15.20;;;;;;;-1.90;nan;95966.88;5053587;28;20325;-62
2022/12/21 02:12:40;;;;;;;23.60;14.20;;;;;;;-1.85;nan;95965.34;5052421;28;20205;-62
2022/12/21 02:15:08;;;;;;;24.33;14.30;;;;;;;-1.87;nan;95962.81;5053720;28;21719;-62
2022/12/21 02:17:47;;;;;;;29.87;15.27;;;;;;;-1.84;nan;95964.56;5052182;28;21885;-62
2022/12/21 02:20:50;;;;;;;30.47;14.60;;;;;;;-1.82;nan;95972.91;5053882;28;20198;-62
2022/12/21 02:23:49;;;;;;;28.07;14.63;;;;;;;-1.88;nan;95957.78;5052337;28;20209;-64
2022/12/21 02:26:30;;;;;;;28.70;14.47;;;;;;;-1.82;nan;95960.47;5032507;28;20620;-63
2022/12/21 02:29:32;;;;;;;24.93;14.47;;;;;;;-1.88;nan;95957.78;5056340;28;20213;-61
2022/12/21 02:32:13;;;;;;;20.30;13.93;;;;;;;-1.89;nan;95958.59;5056567;28;20197;-61
2022/12/21 02:34:46;;;;;;;21.57;14.17;;;;;;;-1.86;nan;95961.16;5055718;28;20227;-61
2022/12/21 02:37:20;;;;;;;26.73;15.03;;;;;;;-1.96;nan;95964.19;5055251;28;20590;-61
2022/12/21 02:39:56;;;;;;;26.30;14.03;;;;;;;-1.94;nan;95957.59;5057125;28;20206;-62
2022/12/21 02:45:23;;;;;;;25.37;14.47;;;;;;;-1.82;nan;95951.34;5055694;28;20604;-64
2022/12/21 02:47:56;;;;;;;25.20;14.40;;;;;;;-1.85;nan;95962.88;5055390;28;20860;-61
2022/12/21 02:50:30;;;;;;;25.73;14.27;;;;;;;-1.94;nan;95958.47;5056509;28;20201;-61
2022/12/21 02:53:01;;;;;;;34.23;16.90;;;;;;;-1.97;nan;95947.56;5056012;28;20687;-62
2022/12/21 02:55:29;;;;;;;29.57;15.83;;;;;;;-1.97;nan;95947.56;5055338;28;20790;-63
2022/12/21 02:58:14;;;;;;;32.63;16.87;;;;;;;-1.90;nan;95949.44;5053773;28;20217;-63
2022/12/21 03:00:56;;;;;;;32.40;16.27;;;;;;;-1.87;nan;95950.34;5055882;28;20205;-62
2022/12/21 03:03:50;;;;;;;26.73;15.53;;;;;;;-1.87;nan;95947.03;5055378;28;20209;-61
2022/12/21 03:06:44;;;;;;;33.57;17.60;;;;;;;-1.94;nan;95933.53;5055351;28;20205;-60
2022/12/21 03:09:23;;;;;;;41.47;20.37;;;;;;;-1.88;nan;95938.72;5055217;28;20221;-62
2022/12/21 03:11:56;;;;;;;41.13;22.40;;;;;;;-1.88;nan;95943.69;5055810;28;20201;-62
2022/12/21 03:14:37;;;;;;;45.50;22.33;;;;;;;-1.89;nan;95923.72;5055516;28;20238;-62
2022/12/21 03:17:15;;;;;;;58.33;25.63;;;;;;;-1.84;nan;95929.69;5055260;28;20229;-62
2022/12/21 03:19:50;;;;;;;54.47;26.07;;;;;;;-1.79;nan;95934.00;5054911;28;20233;-61
2022/12/21 03:22:25;;;;;;;48.33;25.40;;;;;;;-1.82;nan;95928.06;5054633;28;20216;-62
2022/12/21 03:24:58;;;;;;;41.27;22.30;;;;;;;-1.80;nan;95926.47;5055677;28;20691;-61
2022/12/21 03:27:30;;;;;;;45.13;23.07;;;;;;;-1.82;nan;95921.44;5054181;28;20217;-62
2022/12/21 03:30:05;;;;;;;41.10;23.20;;;;;;;-1.81;nan;95907.34;5055058;28;20205;-62
2022/12/21 03:32:36;;;;;;;53.60;24.43;;;;;;;-1.86;nan;95911.34;5055511;28;20579;-61
2022/12/21 03:35:10;;;;;;;53.63;26.17;;;;;;;-1.93;nan;95914.47;5055205;28;20304;-61
2022/12/21 03:37:40;;;;;;;53.00;27.30;;;;;;;-1.91;nan;95905.38;5052939;28;20308;-61
2022/12/21 03:40:13;;;;;;;65.40;31.00;;;;;;;-1.92;nan;95901.22;5054870;28;20210;-61
2022/12/21 03:42:45;;;;;;;63.00;27.40;;;;;;;-1.85;nan;95908.06;5055692;28;20212;-61
2022/12/21 03:45:17;;;;;;;59.20;27.30;;;;;;;-1.93;nan;95899.53;5054533;28;20208;-61
2022/12/21 03:47:49;;;;;;;54.47;25.57;;;;;;;-1.94;nan;95903.66;5055014;28;20233;-61
2022/12/21 03:50:21;;;;;;;50.73;26.87;;;;;;;-2.03;nan;95900.09;5054431;28;20713;-62
2022/12/21 03:52:54;;;;;;;49.93;25.70;;;;;;;-2.06;nan;95893.38;5053884;28;20226;-62
2022/12/21 03:55:24;;;;;;;51.20;24.43;;;;;;;-1.99;nan;95891.91;5055036;28;20225;-62
2022/12/21 03:57:53;;;;;;;51.53;24.80;;;;;;;-2.06;nan;95886.75;5053758;28;20237;-59
2022/12/21 04:00:20;;;;;;;42.20;23.90;;;;;;;-2.06;nan;95885.91;5054424;28;20198;-62
2022/12/21 04:02:54;;;;;;;45.00;24.07;;;;;;;-2.04;nan;95890.91;5042102;28;20327;-62
2022/12/21 04:05:27;;;;;;;42.70;22.97;;;;;;;-2.13;nan;95879.88;5053464;28;20209;-63
2022/12/21 04:07:55;;;;;;;41.27;21.10;;;;;;;-2.08;nan;95885.84;5055189;28;20201;-64
2022/12/21 04:10:25;;;;;;;39.43;20.33;;;;;;;-2.09;nan;95879.19;5054959;28;20202;-61
2022/12/21 04:12:50;;;;;;;36.60;21.27;;;;;;;-2.04;nan;95885.94;5053209;28;20628;-62
2022/12/21 04:15:19;;;;;;;44.80;23.20;;;;;;;-2.09;nan;95880.81;5053693;28;20241;-62
2022/12/21 04:17:47;;;;;;;41.00;21.73;;;;;;;-2.15;nan;95879.00;5053772;28;20213;-64
2022/12/21 04:20:16;;;;;;;36.87;20.43;;;;;;;-2.17;nan;95869.78;5052695;28;20198;-62
2022/12/21 04:28:22;;;;;;;45.33;23.07;;;;;;;-2.15;nan;95873.19;5053370;28;20282;-62
2022/12/21 04:30:49;;;;;;;42.10;23.23;;;;;;;-2.17;nan;95865.66;5052989;28;20302;-60
2022/12/21 04:33:18;;;;;;;46.37;24.67;;;;;;;-2.17;nan;95868.16;5052381;28;20229;-61
2022/12/21 04:38:33;;;;;;;49.77;25.27;;;;;;;-2.15;nan;95865.72;5054702;28;21005;-61
2022/12/21 04:41:00;;;;;;;48.00;25.40;;;;;;;-2.15;nan;95863.22;5053780;28;20206;-63
2022/12/21 04:43:28;;;;;;;41.60;24.13;;;;;;;-2.26;nan;95852.97;5053133;28;20206;-62
2022/12/21 04:46:00;;;;;;;50.80;24.57;;;;;;;-2.24;nan;95855.50;5053187;28;20721;-63
2022/12/21 04:48:27;;;;;;;52.23;25.53;;;;;;;-2.21;nan;95863.88;5054133;28;20205;-60
2022/12/21 04:50:54;;;;;;;44.13;24.30;;;;;;;-2.24;nan;95853.88;5052857;28;20442;-63
2022/12/21 04:53:21;;;;;;;52.17;26.27;;;;;;;-2.17;nan;95873.13;5052123;28;20218;-62
2022/12/21 04:55:49;;;;;;;48.43;24.57;;;;;;;-2.21;nan;95868.88;5052078;28;20703;-61
2022/12/21 04:58:16;;;;;;;41.73;23.53;;;;;;;-2.27;nan;95861.25;5053414;28;20209;-62
2022/12/21 05:00:42;;;;;;;45.57;22.63;;;;;;;-2.27;nan;95861.25;5052876;28;20605;-62
2022/12/21 05:03:09;;;;;;;40.33;22.10;;;;;;;-2.30;nan;95862.81;5052298;28;20878;-62
2022/12/21 05:05:36;;;;;;;35.97;19.60;;;;;;;-2.32;nan;95862.75;5052438;28;21982;-62
2022/12/21 05:08:03;;;;;;;38.73;20.03;;;;;;;-2.27;nan;95863.75;5053120;28;20213;-61
2022/12/21 05:10:30;;;;;;;40.20;21.40;;;;;;;-2.32;nan;95855.28;5053117;28;20224;-61
2022/12/21 05:12:58;;;;;;;35.40;19.27;;;;;;;-2.33;nan;95868.53;5051029;28;20267;-63
2022/12/21 05:15:24;;;;;;;51.20;23.47;;;;;;;-2.36;nan;95860.97;5051877;28;20310;-65
2022/12/21 05:17:52;;;;;;;55.87;27.30;;;;;;;-2.41;nan;95862.47;5053312;28;20225;-61
2022/12/21 05:20:19;;;;;;;42.33;24.50;;;;;;;-2.40;nan;95860.03;5053494;28;20212;-61
2022/12/21 05:22:46;;;;;;;46.53;25.00;;;;;;;-2.37;nan;95854.31;5052488;28;20263;-63
2022/12/21 05:25:13;;;;;;;44.57;22.53;;;;;;;-2.31;nan;95861.97;5052321;28;20848;-62
2022/12/21 05:27:39;;;;;;;40.57;24.30;;;;;;;-2.30;nan;95848.72;5052589;28;20209;-61
2022/12/21 05:30:09;;;;;;;63.47;31.60;;;;;;;-2.27;nan;95856.28;5052055;28;20210;-62
2022/12/21 05:32:36;;;;;;;50.00;27.90;;;;;;;-2.27;nan;95853.78;5052429;28;20209;-63
2022/12/21 05:35:03;;;;;;;51.83;25.87;;;;;;;-2.23;nan;95854.72;5052170;28;20241;-62
2022/12/21 05:37:30;;;;;;;44.93;23.90;;;;;;;-2.26;nan;95849.66;5054112;28;20386;-62
2022/12/21 05:39:57;;;;;;;49.03;24.47;;;;;;;-2.23;nan;95855.56;5053710;28;20208;-61
2022/12/21 05:42:24;;;;;;;47.53;21.93;;;;;;;-2.20;nan;95850.63;5052027;28;20205;-62
2022/12/21 05:44:50;;;;;;;50.33;23.93;;;;;;;-2.20;nan;95849.78;5052188;28;20210;-62
2022/12/21 05:47:19;;;;;;;74.70;34.13;;;;;;;-2.13;nan;95851.66;5052705;28;20209;-62
2022/12/21 05:49:45;;;;;;;63.93;28.70;;;;;;;-2.14;nan;95850.81;5053708;28;20202;-63
2022/12/21 05:52:12;;;;;;;52.80;28.23;;;;;;;-2.05;nan;95857.69;5053244;28;20262;-62
2022/12/21 05:54:39;;;;;;;44.40;23.27;;;;;;;-1.97;nan;95855.41;5051495;28;20201;-62
2022/12/21 05:57:06;;;;;;;50.73;22.80;;;;;;;-1.93;nan;95855.53;5052261;28;20756;-60
2022/12/21 05:59:32;;;;;;;50.80;22.47;;;;;;;-1.93;nan;95849.69;5052470;28;20321;-63
2022/12/21 06:01:59;;;;;;;37.07;20.77;;;;;;;-1.88;nan;95845.69;5054883;28;20206;-62
2022/12/21 06:04:27;;;;;;;43.77;21.53;;;;;;;-1.89;nan;95839.00;5057852;28;20317;-63
2022/12/21 06:06:54;;;;;;;36.73;20.57;;;;;;;-1.89;nan;95846.50;5056867;28;20726;-62
2022/12/21 06:09:23;;;;;;;40.60;21.43;;;;;;;-1.85;nan;95844.13;5056304;28;20206;-62
2022/12/21 06:11:49;;;;;;;42.40;20.87;;;;;;;-1.72;nan;95846.13;5055503;28;20588;-61
2022/12/21 06:14:16;;;;;;;62.63;28.90;;;;;;;-1.56;nan;95841.53;5056615;28;20233;-63
2022/12/21 06:16:43;;;;;;;39.03;21.47;;;;;;;-1.49;nan;95844.25;5056184;28;20333;-64
2022/12/21 06:19:10;;;;;;;48.43;23.20;;;;;;;-1.37;nan;95843.69;5055701;28;20224;-65
2022/12/21 06:21:38;;;;;;;34.13;21.10;;;;;;;-1.34;nan;95837.94;5052729;28;20683;-63
2022/12/21 06:24:06;;;;;;;36.43;21.03;;;;;;;-1.31;nan;95843.84;5055474;28;20290;-63
2022/12/21 06:26:33;;;;;;;41.27;22.67;;;;;;;-1.18;nan;95844.97;5055149;28;20267;-63
2022/12/21 06:28:59;;;;;;;42.30;20.93;;;;;;;-1.05;nan;95841.97;5056052;28;20274;-62
2022/12/21 06:31:26;;;;;;;39.17;20.90;;;;;;;-1.00;nan;95842.91;5055013;28;20225;-62
2022/12/21 06:33:54;;;;;;;35.73;20.00;;;;;;;-0.88;nan;95839.84;5055221;28;20225;-63
2022/12/21 06:36:21;;;;;;;38.03;21.50;;;;;;;-0.73;nan;95833.53;5055522;28;20201;-62
2022/12/21 06:38:50;;;;;;;70.47;34.53;;;;;;;-0.44;nan;95840.78;5056371;28;20209;-62
2022/12/21 06:41:18;;;;;;;85.83;36.80;;;;;;;-0.26;nan;95838.72;5055562;28;20639;-63
2022/12/21 06:43:45;;;;;;;59.07;28.10;;;;;;;-0.22;nan;95827.94;5056273;28;20206;-61
2022/12/21 06:46:14;;;;;;;59.23;24.70;;;;;;;0.23;nan;95850.50;5056511;28;20214;-62
2022/12/21 06:48:41;;;;;;;51.87;24.80;;;;;;;0.29;nan;95854.72;5056405;28;20209;-62
2022/12/21 06:51:10;;;;;;;54.30;26.10;;;;;;;0.36;nan;95856.53;5056553;28;20202;-62
2022/12/21 06:53:39;;;;;;;63.73;28.90;;;;;;;0.49;nan;95842.63;5055303;28;20713;-62
2022/12/21 06:56:09;;;;;;;75.23;37.87;;;;;;;0.60;nan;95844.47;5054434;28;20210;-63
2022/12/21 06:58:37;;;;;;;68.27;35.53;;;;;;;0.54;nan;95856.84;5055053;28;20268;-61
2022/12/21 07:01:05;;;;;;;66.57;34.60;;;;;;;0.67;nan;95853.78;5055956;28;20205;-61
2022/12/21 07:03:32;;;;;;;76.33;38.97;;;;;;;0.85;nan;95853.22;5055477;28;20535;-62
2022/12/21 07:05:59;;;;;;;91.50;45.77;;;;;;;1.07;nan;95846.91;5055690;28;20284;-62
2022/12/21 07:08:26;;;;;;;104.43;46.27;;;;;;;1.44;nan;95859.97;5054391;28;20248;-62
2022/12/21 07:10:56;;;;;;;102.13;44.53;;;;;;;1.38;nan;95867.38;5055785;28;20210;-61
2022/12/21 07:13:25;;;;;;;97.93;48.73;;;;;;;1.39;nan;95849.03;5053778;28;20206;-63
2022/12/21 07:15:52;;;;;;;106.37;52.43;;;;;;;1.55;nan;95870.97;5055580;28;20239;-62
2022/12/21 07:18:19;;;;;;;112.57;50.47;;;;;;;1.50;nan;95865.03;5054504;28;20283;-62
2022/12/21 07:20:45;;;;;;;95.50;51.33;;;;;;;1.65;nan;95862.78;5054540;28;20655;-62
2022/12/21 07:23:13;;;;;;;112.60;50.93;;;;;;;1.86;nan;95859.69;5056492;28;20201;-62
2022/12/21 07:25:39;;;;;;;116.67;51.23;;;;;;;2.02;nan;95857.38;5055776;28;20206;-62
2022/12/21 07:28:06;;;;;;;97.63;50.07;;;;;;;2.02;nan;95852.38;5053939;28;20251;-62
2022/12/21 07:30:34;;;;;;;103.47;46.60;;;;;;;2.20;nan;95863.47;5055327;28;20675;-63
2022/12/21 07:33:01;;;;;;;98.90;47.47;;;;;;;2.33;nan;95850.22;5056018;28;20201;-61
2022/12/21 07:35:28;;;;;;;91.37;45.83;;;;;;;2.48;nan;95852.88;5055327;28;20214;-61
2022/12/21 07:37:55;;;;;;;97.20;46.70;;;;;;;2.66;nan;95848.06;5053743;28;20324;-63
2022/12/21 07:40:21;;;;;;;99.73;50.47;;;;;;;2.91;nan;95843.25;5054712;28;20229;-62
2022/12/21 07:42:48;;;;;;;105.70;48.17;;;;;;;2.91;nan;95843.25;5054561;28;20225;-62
2022/12/21 07:45:15;;;;;;;127.00;56.97;;;;;;;3.39;nan;95843.63;5054980;28;20274;-62
2022/12/21 07:47:43;;;;;;;103.73;51.40;;;;;;;4.18;nan;95844.84;5054865;28;20255;-63
2022/12/21 07:50:10;;;;;;;94.23;47.50;;;;;;;4.73;nan;95831.53;5054664;28;20201;-62
2022/12/21 07:52:38;;;;;;;101.95;48.72;;;;;;;5.20;nan;95840.78;5055271;28;20213;-63
2022/12/21 07:55:06;;;;;;;90.87;47.53;;;;;;;5.61;nan;95847.47;5055930;28;20212;-61
2022/12/21 07:57:33;;;;;;;102.77;47.70;;;;;;;5.82;nan;95847.44;5054522;28;20230;-62
2022/12/21 08:00:00;;;;;;;106.27;49.73;;;;;;;5.93;nan;95838.19;5054751;28;20291;-62
2022/12/21 08:02:26;;;;;;;108.10;50.83;;;;;;;6.16;nan;95844.84;5053579;28;20206;-62
2022/12/21 08:04:55;;;;;;;129.32;51.67;;;;;;;6.49;nan;95842.97;5052898;28;20679;-62
2022/12/21 08:07:22;;;;;;;102.07;52.05;;;;;;;6.82;nan;95841.94;5055615;28;20209;-62
2022/12/21 08:09:49;;;;;;;109.30;50.05;;;;;;;7.21;nan;95837.44;5054555;28;20649;-61
2022/12/21 08:12:15;;;;;;;101.32;48.20;;;;;;;7.35;nan;95835.63;5055163;28;20214;-60
2022/12/21 08:14:42;;;;;;;117.43;50.13;;;;;;;7.44;nan;95832.16;5054098;28;22420;-62
2022/12/21 08:17:09;;;;;;;107.55;47.97;;;;;;;7.57;nan;95822.78;5055178;28;20711;-63
2022/12/21 08:19:36;;;;;;;96.78;46.80;;;;;;;7.59;nan;95821.09;5055071;28;20217;-61
2022/12/21 08:22:04;;;;;;;92.60;43.25;;;;;;;7.50;nan;95817.78;5054876;28;20205;-61
2022/12/21 08:24:31;;;;;;;89.70;44.67;;;;;;;7.66;nan;95815.13;5053931;28;20279;-61
2022/12/21 08:26:57;;;;;;;94.00;48.17;;;;;;;7.71;nan;95803.22;5054102;28;20202;-61
2022/12/21 08:29:24;;;;;;;83.57;42.58;;;;;;;7.41;nan;95801.88;5054152;28;20202;-62
2022/12/21 08:31:51;;;;;;;100.95;45.60;;;;;;;7.16;nan;95801.25;5054764;28;20637;-63
2022/12/21 08:34:18;;;;;;;79.25;41.80;;;;;;;7.01;nan;95801.38;5054001;28;20355;-61
2022/12/21 08:36:44;;;;;;;86.10;44.65;;;;;;;6.95;nan;95784.56;5054568;28;20931;-63
2022/12/21 08:39:13;;;;;;;108.65;44.67;;;;;;;7.02;nan;95792.94;5051038;28;20718;-61
2022/12/21 08:41:39;;;;;;;82.25;45.75;;;;;;;6.86;nan;95782.13;5054154;28;20205;-61
2022/12/21 08:44:07;;;;;;;80.20;43.40;;;;;;;6.73;nan;95791.47;5054977;28;20282;-61
2022/12/21 08:46:34;;;;;;;85.32;43.85;;;;;;;6.81;nan;95783.84;5053789;28;20683;-63
2022/12/21 08:49:01;;;;;;;97.03;46.50;;;;;;;6.76;nan;95778.81;5054916;28;20198;-61
2022/12/21 08:51:27;;;;;;;78.72;38.42;;;;;;;6.91;nan;95779.56;5052634;28;20213;-62
2022/12/21 08:53:55;;;;;;;78.75;38.30;;;;;;;7.04;nan;95774.38;5054190;28;20234;-61
2022/12/21 08:56:24;;;;;;;64.25;33.95;;;;;;;7.13;nan;95776.00;5054139;28;20743;-61
2022/12/21 08:58:51;;;;;;;55.92;31.42;;;;;;;7.16;nan;95768.41;5053379;28;20225;-61
2022/12/21 09:01:19;;;;;;;59.85;31.60;;;;;;;6.79;nan;95763.66;5052131;28;20205;-61
2022/12/21 09:03:45;;;;;;;58.13;30.92;;;;;;;6.82;nan;95773.72;5053762;28;20293;-61
2022/12/21 09:06:12;;;;;;;56.78;29.90;;;;;;;6.95;nan;95766.03;5053946;28;20213;-61
2022/12/21 09:08:40;;;;;;;50.63;30.98;;;;;;;7.13;nan;95766.75;5053850;28;21693;-61
2022/12/21 09:11:09;;;;;;;80.15;39.55;;;;;;;7.33;nan;95748.00;5051653;28;20582;-60
2022/12/21 09:13:38;;;;;;;73.80;39.28;;;;;;;7.47;nan;95754.59;5053290;28;20214;-62
2022/12/21 09:16:13;;;;;;;63.78;39.05;;;;;;;7.48;nan;95743.63;5050583;28;20310;-62
2022/12/21 09:18:40;;;;;;;69.78;38.58;;;;;;;7.39;nan;95743.72;5053814;28;20339;-63
2022/12/21 09:21:07;;;;;;;59.55;34.90;;;;;;;7.21;nan;95733.78;5053054;28;20202;-62
2022/12/21 09:23:34;;;;;;;64.93;37.17;;;;;;;7.01;nan;95730.59;5052329;28;20732;-62
2022/12/21 09:26:01;;;;;;;64.85;33.70;;;;;;;7.14;nan;95722.06;5050250;28;20296;-55
2022/12/21 09:28:28;;;;;;;67.68;35.22;;;;;;;7.31;nan;95720.22;5050863;28;20807;-64
2022/12/21 09:30:56;;;;;;;74.07;34.88;;;;;;;7.32;nan;95709.25;5052209;28;20205;-62
2022/12/21 09:33:23;;;;;;;60.50;36.55;;;;;;;7.19;nan;95710.22;5052270;28;20278;-62
2022/12/21 09:35:52;;;;;;;62.25;36.85;;;;;;;6.99;nan;95682.59;5052992;28;20213;-61
2022/12/21 09:38:19;;;;;;;70.85;36.33;;;;;;;7.28;nan;95697.47;5052598;28;20699;-61
2022/12/21 09:40:46;;;;;;;62.67;36.03;;;;;;;7.41;nan;95693.97;5053204;28;20227;-63
2022/12/21 09:43:22;;;;;;;73.15;35.88;;;;;;;7.33;nan;95687.31;5052530;28;20225;-60
2022/12/21 09:45:56;;;;;;;64.38;35.40;;;;;;;7.46;nan;95686.31;5052651;28;20212;-63
2022/12/21 09:48:28;;;;;;;61.17;33.75;;;;;;;7.36;nan;95675.50;5051483;28;20205;-62
2022/12/21 09:51:00;;;;;;;61.95;32.35;;;;;;;7.52;nan;95686.25;5052893;28;20214;-62
2022/12/21 09:53:34;;;;;;;60.25;32.83;;;;;;;7.63;nan;95686.13;5052609;28;20598;-64
2022/12/21 09:56:01;;;;;;;57.33;32.80;;;;;;;7.50;nan;95683.75;5052135;28;20583;-63
2022/12/21 09:58:34;;;;;;;62.00;36.38;;;;;;;7.58;nan;95677.75;5052061;28;20715;-62
2022/12/21 10:01:11;;;;;;;54.95;33.33;;;;;;;7.62;nan;95667.59;5052461;28;20205;-62
2022/12/21 10:04:07;;;;;;;66.35;32.67;;;;;;;7.64;nan;95668.41;5052026;28;20674;-62
2022/12/21 10:06:56;;;;;;;52.90;31.55;;;;;;;7.65;nan;95654.91;5052291;28;20209;-62
2022/12/21 10:09:56;;;;;;;53.85;31.55;;;;;;;7.55;nan;95643.22;5050271;28;20628;-62
2022/12/21 10:12:32;;;;;;;57.25;32.17;;;;;;;7.41;nan;95640.88;5052413;28;20217;-63
2022/12/21 10:15:11;;;;;;;56.42;32.60;;;;;;;7.49;nan;95645.81;5050972;28;20237;-62
2022/12/21 10:17:45;;;;;;;58.42;33.53;;;;;;;7.46;nan;95629.00;5051952;28;20205;-62
2022/12/21 10:20:34;;;;;;;60.38;33.92;;;;;;;7.51;nan;95627.25;5051535;28;20270;-65
2022/12/21 10:23:04;;;;;;;62.55;32.95;;;;;;;7.47;nan;95625.59;5052530;28;20216;-64
2022/12/21 10:25:40;;;;;;;64.75;35.83;;;;;;;7.38;nan;95618.16;5052905;28;20627;-64
2022/12/21 10:28:17;;;;;;;64.05;32.97;;;;;;;7.45;nan;95613.84;5051247;28;20284;-64
2022/12/21 10:30:53;;;;;;;55.63;30.70;;;;;;;7.39;nan;95607.19;5052278;28;20595;-63
2022/12/21 10:33:23;;;;;;;59.63;32.30;;;;;;;7.33;nan;95597.16;5051784;28;20308;-63
2022/12/21 10:35:54;;;;;;;77.35;38.00;;;;;;;7.38;nan;95600.47;5052594;28;20214;-62
2022/12/21 10:38:21;;;;;;;59.58;31.50;;;;;;;7.44;nan;95600.34;5051542;28;20795;-63
2022/12/21 10:40:52;;;;;;;55.25;31.40;;;;;;;7.43;nan;95598.69;5052655;28;20209;-62
2022/12/21 10:43:21;;;;;;;68.20;31.75;;;;;;;7.38;nan;95597.09;5052003;28;20539;-63
2022/12/21 10:45:48;;;;;;;58.88;31.38;;;;;;;7.39;nan;95594.53;5051803;28;20871;-66
2022/12/21 10:48:15;;;;;;;50.97;30.17;;;;;;;7.38;nan;95592.88;5055103;28;20507;-63
2022/12/21 10:50:46;;;;;;;52.40;27.23;;;;;;;7.47;nan;95580.09;5054065;28;20762;-64
2022/12/21 10:53:24;;;;;;;50.60;27.20;;;;;;;7.23;nan;95582.09;5055464;28;20213;-64
2022/12/21 10:55:54;;;;;;;47.35;29.42;;;;;;;6.93;nan;95580.78;5055588;28;20292;-63
2022/12/21 10:58:24;;;;;;;73.10;39.53;;;;;;;6.76;nan;95578.44;5055694;28;20226;-63
2022/12/21 11:00:59;;;;;;;70.55;31.70;;;;;;;6.83;nan;95575.81;5055534;28;20205;-63
2022/12/21 11:03:29;;;;;;;55.88;30.17;;;;;;;6.85;nan;95567.41;5054752;28;22821;-63
2022/12/21 11:05:56;;;;;;;56.53;30.15;;;;;;;6.90;nan;95566.50;5055163;28;20213;-63
2022/12/21 11:08:28;;;;;;;51.83;29.20;;;;;;;7.05;nan;95565.47;5055810;28;20209;-63
2022/12/21 11:10:56;;;;;;;53.00;31.13;;;;;;;7.03;nan;95562.13;5054485;28;20201;-62
2022/12/21 11:13:25;;;;;;;47.08;29.15;;;;;;;7.17;nan;95560.28;5055180;28;20250;-62
2022/12/21 11:15:54;;;;;;;45.58;27.50;;;;;;;6.82;nan;95559.00;5052088;28;20296;-63
2022/12/21 11:18:42;;;;;;;45.65;28.05;;;;;;;6.65;nan;95560.88;5055849;28;20674;-62
2022/12/21 11:21:27;;;;;;;49.05;28.70;;;;;;;6.61;nan;95559.22;5055496;28;20259;-62
2022/12/21 11:24:01;;;;;;;55.83;27.70;;;;;;;6.74;nan;95544.75;5054974;28;20214;-63
2022/12/21 11:26:33;;;;;;;44.90;26.60;;;;;;;6.62;nan;95539.88;5053496;28;20206;-63
2022/12/21 11:29:02;;;;;;;43.63;27.13;;;;;;;6.52;nan;95544.16;5055511;28;20212;-62
2022/12/21 11:31:31;;;;;;;49.45;26.13;;;;;;;6.54;nan;95539.94;5056317;28;20304;-62
2022/12/21 11:33:58;;;;;;;53.20;27.13;;;;;;;6.47;nan;95543.38;5055414;28;20282;-63
2022/12/21 11:36:24;;;;;;;58.78;31.10;;;;;;;6.42;nan;95535.03;5053637;28;20210;-64
2022/12/21 11:38:51;;;;;;;51.70;27.73;;;;;;;6.56;nan;95525.59;5055119;28;20232;-63
2022/12/21 11:41:30;;;;;;;56.42;28.05;;;;;;;6.60;nan;95527.25;5055068;28;20658;-63
2022/12/21 11:43:57;;;;;;;54.83;28.55;;;;;;;6.60;nan;95521.38;5055162;28;20255;-62
2022/12/21 11:46:36;;;;;;;45.95;27.50;;;;;;;6.63;nan;95507.03;5053385;28;20826;-63
2022/12/21 11:49:25;;;;;;;45.60;27.90;;;;;;;6.48;nan;95507.16;5055200;28;20197;-64
2022/12/21 11:51:59;;;;;;;47.42;27.23;;;;;;;6.59;nan;95510.44;5054738;28;20213;-63
2022/12/21 11:54:46;;;;;;;48.50;29.08;;;;;;;6.53;nan;95502.91;5054650;28;20208;-63
2022/12/21 11:57:25;;;;;;;47.28;28.63;;;;;;;6.69;nan;95506.91;5053321;28;20220;-63
2022/12/21 12:00:03;;;;;;;45.13;27.25;;;;;;;6.74;nan;95495.09;5054190;28;20229;-63
2022/12/21 12:02:57;;;;;;;56.53;26.98;;;;;;;6.57;nan;95486.88;5054455;28;20687;-63